sensor_id;sensor_type;location;lat;lon;timestamp;P1;durP1;ratioP1;P2;durP2;ratioP2
68888;SDS011;55930;47.412;8.790;2023-04-05T00:00:10;7.50;;;5.50;;
68888;SDS011;55930;47.412;8.790;2023-04-05T00:03:32;7.75;;;5.78;;
68888;SDS011;55930;47.412;8.790;2023-04-05T00:06:52;7.40;;;5.67;;
68888;SDS011;55930;47.412;8.790;2023-04-05T00:10:13;9.23;;;6.03;;
68888;SDS011;55930;47.412;8.790;2023-04-05T00:13:33;7.73;;;5.67;;
68888;SDS011;55930;47.412;8.790;2023-04-05T00:16:54;7.73;;;5.20;;
68888;SDS011;55930;47.412;8.790;2023-04-05T00:20:14;8.40;;;6.30;;
68888;SDS011;55930;47.412;8.790;2023-04-05T00:23:35;7.97;;;5.28;;
68888;SDS011;55930;47.412;8.790;2023-04-05T00:26:58;8.60;;;5.97;;
68888;SDS011;55930;47.412;8.790;2023-04-05T00:30:20;6.38;;;5.38;;
68888;SDS011;55930;47.412;8.790;2023-04-05T00:33:40;9.00;;;5.60;;
68888;SDS011;55930;47.412;8.790;2023-04-05T00:37:01;13.17;;;5.70;;
68888;SDS011;55930;47.412;8.790;2023-04-05T00:40:21;7.57;;;5.40;;
68888;SDS011;55930;47.412;8.790;2023-04-05T00:43:42;6.43;;;5.40;;
68888;SDS011;55930;47.412;8.790;2023-04-05T00:47:06;8.57;;;5.87;;
68888;SDS011;55930;47.412;8.790;2023-04-05T00:50:27;7.72;;;5.55;;
68888;SDS011;55930;47.412;8.790;2023-04-05T00:53:50;7.03;;;5.18;;
68888;SDS011;55930;47.412;8.790;2023-04-05T00:57:11;9.15;;;5.45;;
68888;SDS011;55930;47.412;8.790;2023-04-05T01:00:32;8.88;;;6.18;;
68888;SDS011;55930;47.412;8.790;2023-04-05T01:03:59;7.32;;;5.55;;
68888;SDS011;55930;47.412;8.790;2023-04-05T01:07:23;8.15;;;5.82;;
68888;SDS011;55930;47.412;8.790;2023-04-05T01:10:50;7.45;;;5.72;;
68888;SDS011;55930;47.412;8.790;2023-04-05T01:14:14;7.18;;;5.80;;
68888;SDS011;55930;47.412;8.790;2023-04-05T01:17:34;7.97;;;5.10;;
68888;SDS011;55930;47.412;8.790;2023-04-05T01:36:18;8.43;;;5.47;;
68888;SDS011;55930;47.412;8.790;2023-04-05T01:39:59;6.95;;;5.65;;
68888;SDS011;55930;47.412;8.790;2023-04-05T01:43:20;9.13;;;5.65;;
68888;SDS011;55930;47.412;8.790;2023-04-05T01:46:41;8.03;;;6.23;;
68888;SDS011;55930;47.412;8.790;2023-04-05T01:50:02;8.17;;;6.50;;
68888;SDS011;55930;47.412;8.790;2023-04-05T01:53:22;9.77;;;5.53;;
68888;SDS011;55930;47.412;8.790;2023-04-05T01:56:43;8.83;;;5.13;;
68888;SDS011;55930;47.412;8.790;2023-04-05T02:00:05;8.98;;;6.00;;
68888;SDS011;55930;47.412;8.790;2023-04-05T02:03:26;8.65;;;6.18;;
68888;SDS011;55930;47.412;8.790;2023-04-05T02:06:46;8.93;;;5.63;;
68888;SDS011;55930;47.412;8.790;2023-04-05T02:10:07;7.87;;;5.37;;
68888;SDS011;55930;47.412;8.790;2023-04-05T02:13:30;8.90;;;5.57;;
68888;SDS011;55930;47.412;8.790;2023-04-05T02:16:50;9.10;;;6.07;;
68888;SDS011;55930;47.412;8.790;2023-04-05T02:20:15;7.63;;;5.82;;
68888;SDS011;55930;47.412;8.790;2023-04-05T02:23:37;7.45;;;5.95;;
68888;SDS011;55930;47.412;8.790;2023-04-05T02:26:58;10.60;;;7.10;;
68888;SDS011;55930;47.412;8.790;2023-04-05T02:30:18;8.63;;;5.83;;
68888;SDS011;55930;47.412;8.790;2023-04-05T02:33:39;8.23;;;5.87;;
68888;SDS011;55930;47.412;8.790;2023-04-05T02:37:00;8.27;;;5.65;;
68888;SDS011;55930;47.412;8.790;2023-04-05T02:40:20;7.97;;;5.60;;
68888;SDS011;55930;47.412;8.790;2023-04-05T02:43:41;8.37;;;5.83;;
68888;SDS011;55930;47.412;8.790;2023-04-05T02:47:02;7.50;;;6.37;;
68888;SDS011;55930;47.412;8.790;2023-04-05T02:50:22;9.97;;;6.30;;
68888;SDS011;55930;47.412;8.790;2023-04-05T02:53:43;9.67;;;6.60;;
68888;SDS011;55930;47.412;8.790;2023-04-05T02:57:07;6.63;;;5.53;;
68888;SDS011;55930;47.412;8.790;2023-04-05T03:00:30;6.85;;;5.53;;
68888;SDS011;55930;47.412;8.790;2023-04-05T03:03:51;8.40;;;5.80;;
68888;SDS011;55930;47.412;8.790;2023-04-05T03:07:11;7.43;;;5.90;;
68888;SDS011;55930;47.412;8.790;2023-04-05T03:10:37;8.10;;;5.93;;
68888;SDS011;55930;47.412;8.790;2023-04-05T03:14:00;7.88;;;6.38;;
68888;SDS011;55930;47.412;8.790;2023-04-05T03:17:20;8.13;;;6.13;;
68888;SDS011;55930;47.412;8.790;2023-04-05T03:20:41;8.13;;;6.00;;
68888;SDS011;55930;47.412;8.790;2023-04-05T03:24:01;8.67;;;5.80;;
68888;SDS011;55930;47.412;8.790;2023-04-05T03:27:22;9.07;;;6.33;;
68888;SDS011;55930;47.412;8.790;2023-04-05T03:30:42;7.43;;;5.57;;
68888;SDS011;55930;47.412;8.790;2023-04-05T03:34:03;9.80;;;6.43;;
68888;SDS011;55930;47.412;8.790;2023-04-05T03:37:23;6.63;;;5.93;;
68888;SDS011;55930;47.412;8.790;2023-04-05T03:40:44;10.83;;;6.23;;
68888;SDS011;55930;47.412;8.790;2023-04-05T03:44:07;7.13;;;5.93;;
68888;SDS011;55930;47.412;8.790;2023-04-05T03:47:28;8.02;;;5.95;;
68888;SDS011;55930;47.412;8.790;2023-04-05T03:50:48;8.97;;;6.30;;
68888;SDS011;55930;47.412;8.790;2023-04-05T03:54:08;7.70;;;6.17;;
68888;SDS011;55930;47.412;8.790;2023-04-05T03:57:29;9.20;;;6.07;;
68888;SDS011;55930;47.412;8.790;2023-04-05T04:00:50;8.90;;;6.10;;
68888;SDS011;55930;47.412;8.790;2023-04-05T04:04:15;7.18;;;6.22;;
68888;SDS011;55930;47.412;8.790;2023-04-05T04:07:35;6.93;;;6.03;;
68888;SDS011;55930;47.412;8.790;2023-04-05T04:10:55;7.20;;;5.80;;
68888;SDS011;55930;47.412;8.790;2023-04-05T04:14:16;8.33;;;6.30;;
68888;SDS011;55930;47.412;8.790;2023-04-05T04:17:36;9.07;;;6.03;;
68888;SDS011;55930;47.412;8.790;2023-04-05T04:24:25;8.15;;;5.95;;
68888;SDS011;55930;47.412;8.790;2023-04-05T04:27:46;7.77;;;6.07;;
68888;SDS011;55930;47.412;8.790;2023-04-05T04:31:10;6.57;;;5.30;;
68888;SDS011;55930;47.412;8.790;2023-04-05T04:34:33;7.47;;;5.82;;
68888;SDS011;55930;47.412;8.790;2023-04-05T04:37:55;11.73;;;6.23;;
68888;SDS011;55930;47.412;8.790;2023-04-05T04:41:16;9.52;;;6.47;;
68888;SDS011;55930;47.412;8.790;2023-04-05T04:44:40;7.35;;;6.03;;
68888;SDS011;55930;47.412;8.790;2023-04-05T04:48:01;7.38;;;6.00;;
68888;SDS011;55930;47.412;8.790;2023-04-05T04:51:23;8.75;;;6.72;;
68888;SDS011;55930;47.412;8.790;2023-04-05T04:54:45;9.68;;;6.55;;
68888;SDS011;55930;47.412;8.790;2023-04-05T04:58:06;11.07;;;7.00;;
68888;SDS011;55930;47.412;8.790;2023-04-05T05:01:31;12.32;;;6.85;;
68888;SDS011;55930;47.412;8.790;2023-04-05T05:04:53;11.25;;;7.20;;
68888;SDS011;55930;47.412;8.790;2023-04-05T05:08:13;8.80;;;7.13;;
68888;SDS011;55930;47.412;8.790;2023-04-05T05:11:33;10.40;;;6.60;;
68888;SDS011;55930;47.412;8.790;2023-04-05T05:14:54;8.60;;;6.43;;
68888;SDS011;55930;47.412;8.790;2023-04-05T05:18:14;9.57;;;6.47;;
68888;SDS011;55930;47.412;8.790;2023-04-05T05:21:35;9.23;;;6.47;;
68888;SDS011;55930;47.412;8.790;2023-04-05T05:24:56;8.93;;;6.77;;
68888;SDS011;55930;47.412;8.790;2023-04-05T05:28:16;10.43;;;6.37;;
68888;SDS011;55930;47.412;8.790;2023-04-05T05:31:37;8.47;;;5.93;;
68888;SDS011;55930;47.412;8.790;2023-04-05T05:35:00;8.15;;;6.55;;
68888;SDS011;55930;47.412;8.790;2023-04-05T05:38:22;8.35;;;7.03;;
68888;SDS011;55930;47.412;8.790;2023-04-05T05:41:45;8.77;;;7.50;;
68888;SDS011;55930;47.412;8.790;2023-04-05T05:45:05;12.43;;;7.27;;
68888;SDS011;55930;47.412;8.790;2023-04-05T05:48:27;8.90;;;6.15;;
68888;SDS011;55930;47.412;8.790;2023-04-05T05:51:48;7.47;;;5.85;;
68888;SDS011;55930;47.412;8.790;2023-04-05T05:55:09;14.05;;;8.32;;
68888;SDS011;55930;47.412;8.790;2023-04-05T05:58:30;10.20;;;6.97;;
68888;SDS011;55930;47.412;8.790;2023-04-05T06:01:51;9.60;;;6.47;;
68888;SDS011;55930;47.412;8.790;2023-04-05T06:05:11;7.80;;;6.50;;
68888;SDS011;55930;47.412;8.790;2023-04-05T06:08:32;10.87;;;8.13;;
68888;SDS011;55930;47.412;8.790;2023-04-05T06:11:52;11.57;;;7.30;;
68888;SDS011;55930;47.412;8.790;2023-04-05T06:15:13;8.27;;;6.83;;
68888;SDS011;55930;47.412;8.790;2023-04-05T06:18:35;12.38;;;7.65;;
68888;SDS011;55930;47.412;8.790;2023-04-05T06:21:56;11.67;;;7.07;;
68888;SDS011;55930;47.412;8.790;2023-04-05T06:25:16;12.67;;;7.27;;
68888;SDS011;55930;47.412;8.790;2023-04-05T06:28:37;10.90;;;5.70;;
68888;SDS011;55930;47.412;8.790;2023-04-05T06:31:57;8.30;;;6.90;;
68888;SDS011;55930;47.412;8.790;2023-04-05T06:35:20;8.85;;;7.13;;
68888;SDS011;55930;47.412;8.790;2023-04-05T06:42:02;7.15;;;6.15;;
68888;SDS011;55930;47.412;8.790;2023-04-05T06:45:22;8.97;;;7.30;;
68888;SDS011;55930;47.412;8.790;2023-04-05T06:48:43;11.60;;;6.33;;
68888;SDS011;55930;47.412;8.790;2023-04-05T06:52:07;10.13;;;7.20;;
68888;SDS011;55930;47.412;8.790;2023-04-05T06:55:30;9.63;;;6.75;;
68888;SDS011;55930;47.412;8.790;2023-04-05T06:58:51;10.52;;;6.82;;
68888;SDS011;55930;47.412;8.790;2023-04-05T07:02:12;7.67;;;6.50;;
68888;SDS011;55930;47.412;8.790;2023-04-05T07:05:32;9.80;;;7.00;;
68888;SDS011;55930;47.412;8.790;2023-04-05T07:08:52;8.83;;;7.40;;
68888;SDS011;55930;47.412;8.790;2023-04-05T07:12:13;10.57;;;6.70;;
68888;SDS011;55930;47.412;8.790;2023-04-05T07:15:33;8.23;;;7.00;;
68888;SDS011;55930;47.412;8.790;2023-04-05T07:18:55;13.33;;;7.17;;
68888;SDS011;55930;47.412;8.790;2023-04-05T07:22:16;8.27;;;6.60;;
68888;SDS011;55930;47.412;8.790;2023-04-05T07:25:38;8.80;;;6.63;;
68888;SDS011;55930;47.412;8.790;2023-04-05T07:28:59;9.60;;;6.78;;
68888;SDS011;55930;47.412;8.790;2023-04-05T07:32:19;9.07;;;6.77;;
68888;SDS011;55930;47.412;8.790;2023-04-05T07:35:40;6.13;;;5.53;;
68888;SDS011;55930;47.412;8.790;2023-04-05T07:39:00;7.83;;;5.90;;
68888;SDS011;55930;47.412;8.790;2023-04-05T07:42:21;7.53;;;6.00;;
68888;SDS011;55930;47.412;8.790;2023-04-05T07:45:41;7.93;;;5.97;;
68888;SDS011;55930;47.412;8.790;2023-04-05T07:49:02;7.83;;;5.50;;
68888;SDS011;55930;47.412;8.790;2023-04-05T07:52:22;7.53;;;6.07;;
68888;SDS011;55930;47.412;8.790;2023-04-05T07:55:48;9.50;;;6.30;;
68888;SDS011;55930;47.412;8.790;2023-04-05T07:59:09;9.07;;;6.43;;
68888;SDS011;55930;47.412;8.790;2023-04-05T08:02:29;10.00;;;5.90;;
68888;SDS011;55930;47.412;8.790;2023-04-05T08:05:50;10.07;;;6.47;;
68888;SDS011;55930;47.412;8.790;2023-04-05T08:09:10;8.10;;;5.77;;
68888;SDS011;55930;47.412;8.790;2023-04-05T08:12:31;8.77;;;5.80;;
68888;SDS011;55930;47.412;8.790;2023-04-05T08:15:54;9.68;;;5.70;;
68888;SDS011;55930;47.412;8.790;2023-04-05T08:19:16;6.93;;;5.55;;
68888;SDS011;55930;47.412;8.790;2023-04-05T08:22:37;6.10;;;4.90;;
68888;SDS011;55930;47.412;8.790;2023-04-05T08:25:57;6.33;;;5.33;;
68888;SDS011;55930;47.412;8.790;2023-04-05T08:29:17;6.87;;;4.90;;
68888;SDS011;55930;47.412;8.790;2023-04-05T08:32:38;7.37;;;5.33;;
68888;SDS011;55930;47.412;8.790;2023-04-05T08:36:05;6.20;;;4.50;;
68888;SDS011;55930;47.412;8.790;2023-04-05T08:39:26;8.85;;;5.18;;
68888;SDS011;55930;47.412;8.790;2023-04-05T08:42:51;7.23;;;5.40;;
68888;SDS011;55930;47.412;8.790;2023-04-05T08:46:15;6.47;;;5.13;;
68888;SDS011;55930;47.412;8.790;2023-04-05T08:49:41;6.20;;;4.80;;
68888;SDS011;55930;47.412;8.790;2023-04-05T08:53:02;8.15;;;5.15;;
68888;SDS011;55930;47.412;8.790;2023-04-05T08:56:25;9.30;;;5.25;;
68888;SDS011;55930;47.412;8.790;2023-04-05T08:59:50;6.25;;;5.53;;
68888;SDS011;55930;47.412;8.790;2023-04-05T09:06:40;6.50;;;4.95;;
68888;SDS011;55930;47.412;8.790;2023-04-05T09:10:00;6.50;;;5.27;;
68888;SDS011;55930;47.412;8.790;2023-04-05T09:13:24;7.05;;;5.22;;
68888;SDS011;55930;47.412;8.790;2023-04-05T09:16:47;7.40;;;5.22;;
68888;SDS011;55930;47.412;8.790;2023-04-05T09:20:08;8.03;;;5.67;;
68888;SDS011;55930;47.412;8.790;2023-04-05T09:23:32;7.93;;;4.82;;
68888;SDS011;55930;47.412;8.790;2023-04-05T09:27:02;6.13;;;4.93;;
68888;SDS011;55930;47.412;8.790;2023-04-05T09:30:25;6.00;;;4.70;;
68888;SDS011;55930;47.412;8.790;2023-04-05T09:33:47;5.80;;;4.50;;
68888;SDS011;55930;47.412;8.790;2023-04-05T09:37:25;5.33;;;4.37;;
68888;SDS011;55930;47.412;8.790;2023-04-05T09:40:46;5.10;;;4.53;;
68888;SDS011;55930;47.412;8.790;2023-04-05T09:44:07;6.35;;;4.93;;
68888;SDS011;55930;47.412;8.790;2023-04-05T09:47:28;5.10;;;4.33;;
68888;SDS011;55930;47.412;8.790;2023-04-05T09:50:53;6.30;;;4.80;;
68888;SDS011;55930;47.412;8.790;2023-04-05T09:54:25;7.20;;;4.78;;
68888;SDS011;55930;47.412;8.790;2023-04-05T09:57:47;5.78;;;4.40;;
68888;SDS011;55930;47.412;8.790;2023-04-05T10:01:07;5.70;;;5.07;;
68888;SDS011;55930;47.412;8.790;2023-04-05T10:04:37;6.20;;;4.63;;
68888;SDS011;55930;47.412;8.790;2023-04-05T10:08:01;7.00;;;4.90;;
68888;SDS011;55930;47.412;8.790;2023-04-05T10:11:22;8.07;;;5.00;;
68888;SDS011;55930;47.412;8.790;2023-04-05T10:14:43;6.40;;;5.40;;
68888;SDS011;55930;47.412;8.790;2023-04-05T10:21:29;5.97;;;4.53;;
68888;SDS011;55930;47.412;8.790;2023-04-05T10:24:57;6.72;;;4.85;;
68888;SDS011;55930;47.412;8.790;2023-04-05T10:28:31;9.02;;;5.63;;
68888;SDS011;55930;47.412;8.790;2023-04-05T10:32:02;6.43;;;5.07;;
68888;SDS011;55930;47.412;8.790;2023-04-05T10:35:42;9.18;;;5.47;;
68888;SDS011;55930;47.412;8.790;2023-04-05T10:42:48;5.93;;;5.10;;
68888;SDS011;55930;47.412;8.790;2023-04-05T10:46:09;5.70;;;5.10;;
68888;SDS011;55930;47.412;8.790;2023-04-05T10:49:44;8.30;;;5.70;;
68888;SDS011;55930;47.412;8.790;2023-04-05T10:53:07;8.10;;;5.30;;
68888;SDS011;55930;47.412;8.790;2023-04-05T10:56:30;5.93;;;4.88;;
68888;SDS011;55930;47.412;8.790;2023-04-05T11:03:39;6.60;;;5.22;;
68888;SDS011;55930;47.412;8.790;2023-04-05T11:07:15;6.38;;;4.30;;
68888;SDS011;55930;47.412;8.790;2023-04-05T11:10:37;6.30;;;4.95;;
68888;SDS011;55930;47.412;8.790;2023-04-05T11:14:00;5.60;;;4.47;;
68888;SDS011;55930;47.412;8.790;2023-04-05T11:17:39;6.07;;;4.75;;
68888;SDS011;55930;47.412;8.790;2023-04-05T11:21:06;4.95;;;4.10;;
68888;SDS011;55930;47.412;8.790;2023-04-05T11:24:27;6.85;;;3.95;;
68888;SDS011;55930;47.412;8.790;2023-04-05T11:28:33;6.65;;;4.45;;
68888;SDS011;55930;47.412;8.790;2023-04-05T11:32:00;6.25;;;4.45;;
68888;SDS011;55930;47.412;8.790;2023-04-05T11:35:30;5.55;;;4.22;;
68888;SDS011;55930;47.412;8.790;2023-04-05T11:39:21;5.47;;;3.75;;
68888;SDS011;55930;47.412;8.790;2023-04-05T11:42:42;6.93;;;3.70;;
68888;SDS011;55930;47.412;8.790;2023-04-05T11:46:03;6.15;;;4.05;;
68888;SDS011;55930;47.412;8.790;2023-04-05T11:49:24;4.63;;;3.63;;
68888;SDS011;55930;47.412;8.790;2023-04-05T11:52:44;5.28;;;3.88;;
68888;SDS011;55930;47.412;8.790;2023-04-05T11:56:06;7.70;;;3.55;;
68888;SDS011;55930;47.412;8.790;2023-04-05T11:59:29;6.63;;;3.67;;
68888;SDS011;55930;47.412;8.790;2023-04-05T12:02:54;3.95;;;3.33;;
68888;SDS011;55930;47.412;8.790;2023-04-05T12:06:15;4.78;;;3.70;;
68888;SDS011;55930;47.412;8.790;2023-04-05T12:09:51;5.07;;;3.15;;
68888;SDS011;55930;47.412;8.790;2023-04-05T12:13:23;5.97;;;4.03;;
68888;SDS011;55930;47.412;8.790;2023-04-05T12:16:48;4.53;;;3.55;;
68888;SDS011;55930;47.412;8.790;2023-04-05T12:20:10;4.25;;;3.25;;
68888;SDS011;55930;47.412;8.790;2023-04-05T12:23:32;7.25;;;3.78;;
68888;SDS011;55930;47.412;8.790;2023-04-05T12:26:53;4.05;;;3.40;;
68888;SDS011;55930;47.412;8.790;2023-04-05T12:30:17;4.43;;;3.30;;
68888;SDS011;55930;47.412;8.790;2023-04-05T12:33:39;4.15;;;3.67;;
68888;SDS011;55930;47.412;8.790;2023-04-05T12:37:02;4.55;;;4.00;;
68888;SDS011;55930;47.412;8.790;2023-04-05T12:40:22;5.15;;;3.30;;
68888;SDS011;55930;47.412;8.790;2023-04-05T12:43:45;4.50;;;3.72;;
68888;SDS011;55930;47.412;8.790;2023-04-05T12:47:08;4.68;;;3.58;;
68888;SDS011;55930;47.412;8.790;2023-04-05T12:50:30;3.30;;;2.70;;
68888;SDS011;55930;47.412;8.790;2023-04-05T12:53:50;4.35;;;3.72;;
68888;SDS011;55930;47.412;8.790;2023-04-05T12:57:16;4.70;;;3.30;;
68888;SDS011;55930;47.412;8.790;2023-04-05T13:00:36;5.57;;;3.33;;
68888;SDS011;55930;47.412;8.790;2023-04-05T13:03:57;4.32;;;3.20;;
68888;SDS011;55930;47.412;8.790;2023-04-05T13:07:20;7.03;;;3.75;;
68888;SDS011;55930;47.412;8.790;2023-04-05T13:10:40;6.05;;;3.50;;
68888;SDS011;55930;47.412;8.790;2023-04-05T13:14:01;5.78;;;3.40;;
68888;SDS011;55930;47.412;8.790;2023-04-05T13:17:23;4.15;;;2.80;;
68888;SDS011;55930;47.412;8.790;2023-04-05T13:20:44;4.60;;;3.10;;
68888;SDS011;55930;47.412;8.790;2023-04-05T13:24:04;5.25;;;2.90;;
68888;SDS011;55930;47.412;8.790;2023-04-05T13:27:25;4.57;;;2.75;;
68888;SDS011;55930;47.412;8.790;2023-04-05T13:30:45;7.53;;;3.10;;
68888;SDS011;55930;47.412;8.790;2023-04-05T13:34:06;4.65;;;3.10;;
68888;SDS011;55930;47.412;8.790;2023-04-05T13:37:27;4.15;;;3.13;;
68888;SDS011;55930;47.412;8.790;2023-04-05T13:40:51;4.10;;;3.10;;
68888;SDS011;55930;47.412;8.790;2023-04-05T13:44:11;3.28;;;2.97;;
68888;SDS011;55930;47.412;8.790;2023-04-05T13:47:31;3.80;;;2.92;;
68888;SDS011;55930;47.412;8.790;2023-04-05T13:50:52;4.05;;;3.05;;
68888;SDS011;55930;47.412;8.790;2023-04-05T13:54:12;3.42;;;2.53;;
68888;SDS011;55930;47.412;8.790;2023-04-05T13:57:32;7.43;;;3.20;;
68888;SDS011;55930;47.412;8.790;2023-04-05T14:00:53;3.55;;;3.00;;
68888;SDS011;55930;47.412;8.790;2023-04-05T14:04:14;3.60;;;2.70;;
68888;SDS011;55930;47.412;8.790;2023-04-05T14:07:35;3.72;;;3.22;;
68888;SDS011;55930;47.412;8.790;2023-04-05T14:10:56;5.88;;;3.30;;
68888;SDS011;55930;47.412;8.790;2023-04-05T14:14:16;9.00;;;4.97;;
68888;SDS011;55930;47.412;8.790;2023-04-05T14:17:36;5.00;;;3.70;;
68888;SDS011;55930;47.412;8.790;2023-04-05T14:20:57;4.78;;;3.30;;
68888;SDS011;55930;47.412;8.790;2023-04-05T14:24:18;5.55;;;3.97;;
68888;SDS011;55930;47.412;8.790;2023-04-05T14:27:38;5.20;;;3.35;;
68888;SDS011;55930;47.412;8.790;2023-04-05T14:31:01;11.48;;;3.60;;
68888;SDS011;55930;47.412;8.790;2023-04-05T14:34:21;4.45;;;3.42;;
68888;SDS011;55930;47.412;8.790;2023-04-05T14:37:42;4.95;;;3.60;;
68888;SDS011;55930;47.412;8.790;2023-04-05T14:41:02;4.13;;;3.38;;
68888;SDS011;55930;47.412;8.790;2023-04-05T14:44:25;4.28;;;3.47;;
68888;SDS011;55930;47.412;8.790;2023-04-05T14:47:46;4.60;;;3.50;;
68888;SDS011;55930;47.412;8.790;2023-04-05T14:51:07;5.43;;;4.10;;
68888;SDS011;55930;47.412;8.790;2023-04-05T14:54:27;5.15;;;3.53;;
68888;SDS011;55930;47.412;8.790;2023-04-05T14:57:48;4.43;;;3.30;;
68888;SDS011;55930;47.412;8.790;2023-04-05T15:01:08;4.18;;;3.28;;
68888;SDS011;55930;47.412;8.790;2023-04-05T15:04:29;4.90;;;3.50;;
68888;SDS011;55930;47.412;8.790;2023-04-05T15:07:50;4.45;;;3.40;;
68888;SDS011;55930;47.412;8.790;2023-04-05T15:11:10;3.80;;;3.17;;
68888;SDS011;55930;47.412;8.790;2023-04-05T15:14:31;6.13;;;3.70;;
68888;SDS011;55930;47.412;8.790;2023-04-05T15:17:51;4.97;;;4.47;;
68888;SDS011;55930;47.412;8.790;2023-04-05T15:21:12;5.45;;;4.15;;
68888;SDS011;55930;47.412;8.790;2023-04-05T15:24:32;5.13;;;3.50;;
68888;SDS011;55930;47.412;8.790;2023-04-05T15:27:53;6.20;;;4.00;;
68888;SDS011;55930;47.412;8.790;2023-04-05T15:31:16;4.22;;;3.83;;
68888;SDS011;55930;47.412;8.790;2023-04-05T15:34:36;4.80;;;3.92;;
68888;SDS011;55930;47.412;8.790;2023-04-05T15:37:57;5.25;;;3.88;;
68888;SDS011;55930;47.412;8.790;2023-04-05T15:41:18;4.55;;;3.78;;
68888;SDS011;55930;47.412;8.790;2023-04-05T15:44:38;4.15;;;3.58;;
68888;SDS011;55930;47.412;8.790;2023-04-05T15:47:59;5.53;;;3.95;;
68888;SDS011;55930;47.412;8.790;2023-04-05T15:51:19;5.65;;;3.88;;
68888;SDS011;55930;47.412;8.790;2023-04-05T15:54:40;5.25;;;4.40;;
68888;SDS011;55930;47.412;8.790;2023-04-05T15:58:05;6.78;;;4.88;;
68888;SDS011;55930;47.412;8.790;2023-04-05T16:01:26;5.47;;;4.47;;
68888;SDS011;55930;47.412;8.790;2023-04-05T16:08:07;6.97;;;4.10;;
68888;SDS011;55930;47.412;8.790;2023-04-05T16:14:47;4.95;;;4.20;;
68888;SDS011;55930;47.412;8.790;2023-04-05T16:21:30;5.13;;;4.18;;
68888;SDS011;55930;47.412;8.790;2023-04-05T16:24:50;5.43;;;4.38;;
68888;SDS011;55930;47.412;8.790;2023-04-05T16:28:11;4.82;;;4.22;;
68888;SDS011;55930;47.412;8.790;2023-04-05T16:31:31;5.43;;;3.73;;
68888;SDS011;55930;47.412;8.790;2023-04-05T16:34:52;9.23;;;4.40;;
68888;SDS011;55930;47.412;8.790;2023-04-05T16:38:12;6.50;;;4.20;;
68888;SDS011;55930;47.412;8.790;2023-04-05T16:41:33;4.47;;;4.00;;
68888;SDS011;55930;47.412;8.790;2023-04-05T16:44:55;5.07;;;4.13;;
68888;SDS011;55930;47.412;8.790;2023-04-05T16:48:17;4.78;;;3.80;;
68888;SDS011;55930;47.412;8.790;2023-04-05T16:51:38;5.82;;;4.05;;
68888;SDS011;55930;47.412;8.790;2023-04-05T16:54:58;4.87;;;3.80;;
68888;SDS011;55930;47.412;8.790;2023-04-05T16:58:21;5.55;;;4.18;;
68888;SDS011;55930;47.412;8.790;2023-04-05T17:01:41;5.77;;;4.30;;
68888;SDS011;55930;47.412;8.790;2023-04-05T17:05:02;6.13;;;3.90;;
68888;SDS011;55930;47.412;8.790;2023-04-05T17:08:22;4.78;;;3.30;;
68888;SDS011;55930;47.412;8.790;2023-04-05T17:11:43;4.75;;;3.20;;
68888;SDS011;55930;47.412;8.790;2023-04-05T17:15:03;7.47;;;3.53;;
68888;SDS011;55930;47.412;8.790;2023-04-05T17:18:24;5.63;;;2.85;;
68888;SDS011;55930;47.412;8.790;2023-04-05T17:21:45;5.93;;;3.27;;
68888;SDS011;55930;47.412;8.790;2023-04-05T17:25:07;4.63;;;3.30;;
68888;SDS011;55930;47.412;8.790;2023-04-05T17:28:28;10.00;;;4.40;;
68888;SDS011;55930;47.412;8.790;2023-04-05T17:31:50;4.83;;;3.50;;
68888;SDS011;55930;47.412;8.790;2023-04-05T17:35:10;3.65;;;2.95;;
68888;SDS011;55930;47.412;8.790;2023-04-05T17:38:31;5.50;;;3.63;;
68888;SDS011;55930;47.412;8.790;2023-04-05T17:41:51;5.93;;;3.80;;
68888;SDS011;55930;47.412;8.790;2023-04-05T17:45:14;5.25;;;3.30;;
68888;SDS011;55930;47.412;8.790;2023-04-05T17:48:35;4.63;;;3.33;;
68888;SDS011;55930;47.412;8.790;2023-04-05T17:51:55;5.60;;;3.77;;
68888;SDS011;55930;47.412;8.790;2023-04-05T17:55:16;4.70;;;3.67;;
68888;SDS011;55930;47.412;8.790;2023-04-05T17:58:36;5.60;;;3.70;;
68888;SDS011;55930;47.412;8.790;2023-04-05T18:01:57;4.83;;;3.80;;
68888;SDS011;55930;47.412;8.790;2023-04-05T18:05:17;5.87;;;3.70;;
68888;SDS011;55930;47.412;8.790;2023-04-05T18:08:40;6.43;;;3.97;;
68888;SDS011;55930;47.412;8.790;2023-04-05T18:12:00;5.70;;;3.80;;
68888;SDS011;55930;47.412;8.790;2023-04-05T18:15:21;5.90;;;3.90;;
68888;SDS011;55930;47.412;8.790;2023-04-05T18:18:42;5.38;;;3.88;;
68888;SDS011;55930;47.412;8.790;2023-04-05T18:22:02;6.47;;;4.57;;
68888;SDS011;55930;47.412;8.790;2023-04-05T18:25:23;7.13;;;4.33;;
68888;SDS011;55930;47.412;8.790;2023-04-05T18:28:46;5.80;;;4.60;;
68888;SDS011;55930;47.412;8.790;2023-04-05T18:32:08;6.82;;;4.90;;
68888;SDS011;55930;47.412;8.790;2023-04-05T18:35:29;5.45;;;4.25;;
68888;SDS011;55930;47.412;8.790;2023-04-05T18:38:53;5.57;;;4.70;;
68888;SDS011;55930;47.412;8.790;2023-04-05T18:42:16;6.32;;;4.63;;
68888;SDS011;55930;47.412;8.790;2023-04-05T18:45:36;8.20;;;6.20;;
68888;SDS011;55930;47.412;8.790;2023-04-05T18:48:57;8.43;;;6.60;;
68888;SDS011;55930;47.412;8.790;2023-04-05T18:52:18;6.03;;;5.03;;
68888;SDS011;55930;47.412;8.790;2023-04-05T18:55:42;7.22;;;5.13;;
68888;SDS011;55930;47.412;8.790;2023-04-05T18:59:03;5.70;;;5.03;;
68888;SDS011;55930;47.412;8.790;2023-04-05T19:02:26;5.93;;;5.32;;
68888;SDS011;55930;47.412;8.790;2023-04-05T19:05:51;6.13;;;5.53;;
68888;SDS011;55930;47.412;8.790;2023-04-05T19:09:12;9.88;;;6.63;;
68888;SDS011;55930;47.412;8.790;2023-04-05T19:12:32;9.63;;;6.00;;
68888;SDS011;55930;47.412;8.790;2023-04-05T19:15:53;7.67;;;5.73;;
68888;SDS011;55930;47.412;8.790;2023-04-05T19:19:13;6.63;;;5.57;;
68888;SDS011;55930;47.412;8.790;2023-04-05T19:22:35;10.25;;;7.18;;
68888;SDS011;55930;47.412;8.790;2023-04-05T19:25:56;7.23;;;6.00;;
68888;SDS011;55930;47.412;8.790;2023-04-05T19:29:18;8.57;;;6.22;;
68888;SDS011;55930;47.412;8.790;2023-04-05T19:32:38;8.67;;;6.60;;
68888;SDS011;55930;47.412;8.790;2023-04-05T19:36:00;8.27;;;7.40;;
68888;SDS011;55930;47.412;8.790;2023-04-05T19:39:21;10.80;;;6.90;;
68888;SDS011;55930;47.412;8.790;2023-04-05T19:42:45;9.23;;;7.03;;
68888;SDS011;55930;47.412;8.790;2023-04-05T19:46:06;8.90;;;6.75;;
68888;SDS011;55930;47.412;8.790;2023-04-05T19:49:31;8.95;;;6.80;;
68888;SDS011;55930;47.412;8.790;2023-04-05T19:52:59;10.07;;;7.60;;
68888;SDS011;55930;47.412;8.790;2023-04-05T19:56:23;11.00;;;8.07;;
68888;SDS011;55930;47.412;8.790;2023-04-05T20:03:31;10.48;;;7.20;;
68888;SDS011;55930;47.412;8.790;2023-04-05T20:06:56;9.57;;;7.80;;
68888;SDS011;55930;47.412;8.790;2023-04-05T20:10:16;10.17;;;7.93;;
68888;SDS011;55930;47.412;8.790;2023-04-05T20:13:44;8.70;;;7.30;;
68888;SDS011;55930;47.412;8.790;2023-04-05T20:17:07;9.98;;;7.28;;
68888;SDS011;55930;47.412;8.790;2023-04-05T20:20:31;9.48;;;7.53;;
68888;SDS011;55930;47.412;8.790;2023-04-05T20:23:53;13.63;;;7.22;;
68888;SDS011;55930;47.412;8.790;2023-04-05T20:27:14;9.15;;;7.68;;
68888;SDS011;55930;47.412;8.790;2023-04-05T20:30:34;10.00;;;7.70;;
68888;SDS011;55930;47.412;8.790;2023-04-05T20:33:55;9.60;;;7.27;;
68888;SDS011;55930;47.412;8.790;2023-04-05T20:37:16;11.32;;;7.53;;
68888;SDS011;55930;47.412;8.790;2023-04-05T20:40:36;8.63;;;7.37;;
68888;SDS011;55930;47.412;8.790;2023-04-05T20:43:57;9.97;;;7.37;;
68888;SDS011;55930;47.412;8.790;2023-04-05T20:47:18;8.60;;;7.03;;
68888;SDS011;55930;47.412;8.790;2023-04-05T20:50:39;12.57;;;7.80;;
68888;SDS011;55930;47.412;8.790;2023-04-05T20:53:59;10.37;;;7.63;;
68888;SDS011;55930;47.412;8.790;2023-04-05T20:57:20;11.20;;;7.93;;
68888;SDS011;55930;47.412;8.790;2023-04-05T21:00:41;11.82;;;8.30;;
68888;SDS011;55930;47.412;8.790;2023-04-05T21:04:02;9.47;;;7.03;;